Time;durP1;ratioP1;P1;durP2;ratioP2;P2;SDS_P1;SDS_P2;PMS_P1;PMS_P2;Temp;Humidity;BMP_temperature;BMP_pressure;BME280_temperature;BME280_humidity;BME280_pressure;Samples;Min_cycle;Max_cycle;Signal;HPM_P1;HPM_P2
2021/09/02 00:01:17;;;;;;;6.27;4.03;;;14.10;99.90;;;;;;5023764;28;20226;-67
2021/09/02 00:03:45;;;;;;;7.33;4.27;;;14.10;99.90;;;;;;5030773;28;20226;-67
2021/09/02 00:06:12;;;;;;;8.80;4.23;;;14.10;99.90;;;;;;5021975;28;20218;-67
2021/09/02 00:08:38;;;;;;;7.80;4.60;;;14.10;99.90;;;;;;5033993;28;20688;-67
2021/09/02 00:11:05;;;;;;;5.37;3.67;;;14.00;99.90;;;;;;5028392;28;20224;-68
2021/09/02 00:13:32;;;;;;;7.40;4.30;;;14.00;99.90;;;;;;5020439;28;20218;-67
2021/09/02 00:16:01;;;;;;;7.20;4.00;;;14.00;99.90;;;;;;5019818;28;20202;-68
2021/09/02 00:18:28;;;;;;;5.23;3.90;;;14.00;99.90;;;;;;5033886;28;20214;-67
2021/09/02 00:20:56;;;;;;;6.73;4.27;;;14.00;99.90;;;;;;5030966;28;20215;-67
2021/09/02 00:23:23;;;;;;;6.30;3.83;;;14.00;99.90;;;;;;5023581;28;20207;-67
2021/09/02 00:25:50;;;;;;;6.77;3.30;;;14.00;99.90;;;;;;5020524;28;20223;-68
2021/09/02 00:28:17;;;;;;;5.23;3.33;;;13.90;99.90;;;;;;5027887;28;20211;-68
2021/09/02 00:30:43;;;;;;;6.30;4.00;;;13.90;99.90;;;;;;5019769;28;20207;-68
2021/09/02 00:33:15;;;;;;;6.30;3.83;;;13.90;99.90;;;;;;5016088;28;20207;-68
2021/09/02 00:35:42;;;;;;;5.97;4.00;;;13.80;99.90;;;;;;5031172;28;20647;-67
2021/09/02 00:38:10;;;;;;;6.10;3.57;;;13.80;99.90;;;;;;5024580;28;20204;-68
2021/09/02 00:40:37;;;;;;;6.80;4.10;;;13.70;99.90;;;;;;5022477;28;20714;-68
2021/09/02 00:43:04;;;;;;;7.37;3.53;;;13.70;99.90;;;;;;5030365;28;20227;-68
2021/09/02 00:45:32;;;;;;;6.20;3.70;;;13.70;99.90;;;;;;5023169;28;20211;-68
2021/09/02 00:47:59;;;;;;;7.57;3.70;;;13.70;99.90;;;;;;5025693;28;20207;-67
2021/09/02 00:50:26;;;;;;;6.70;3.80;;;13.70;99.90;;;;;;5027566;28;20217;-67
2021/09/02 00:52:53;;;;;;;7.80;3.67;;;13.60;99.90;;;;;;5033205;28;20202;-68
2021/09/02 00:55:21;;;;;;;6.33;4.00;;;13.50;99.90;;;;;;5019571;28;20230;-68
2021/09/02 00:57:48;;;;;;;5.77;3.73;;;13.50;99.90;;;;;;5028185;28;20204;-68
2021/09/02 01:00:17;;;;;;;7.83;4.23;;;13.40;99.90;;;;;;5016831;28;20735;-68
2021/09/02 01:02:45;;;;;;;8.47;4.13;;;13.40;99.90;;;;;;5023048;28;20578;-68
2021/09/02 01:05:13;;;;;;;7.33;4.17;;;13.40;99.90;;;;;;5020616;28;20326;-68
2021/09/02 01:07:41;;;;;;;5.53;4.00;;;13.40;99.90;;;;;;5016581;28;20199;-69
2021/09/02 01:10:08;;;;;;;6.57;3.97;;;13.30;99.90;;;;;;5020449;28;20683;-67
2021/09/02 01:12:39;;;;;;;6.77;3.67;;;13.30;99.90;;;;;;5030163;28;20214;-67
2021/09/02 01:15:09;;;;;;;7.97;4.13;;;13.30;99.90;;;;;;5032156;28;20202;-67
2021/09/02 01:17:37;;;;;;;6.50;3.70;;;13.20;99.90;;;;;;5031745;28;20239;-68
2021/09/02 01:20:06;;;;;;;5.77;3.23;;;13.20;99.90;;;;;;5031782;28;20216;-68
2021/09/02 01:22:34;;;;;;;6.77;4.17;;;13.20;99.90;;;;;;5031398;28;20258;-68
2021/09/02 01:25:04;;;;;;;6.10;4.00;;;13.20;99.90;;;;;;5031740;28;20202;-67
2021/09/02 01:27:31;;;;;;;6.20;3.83;;;13.10;99.90;;;;;;5032399;28;20214;-67
2021/09/02 01:30:00;;;;;;;7.20;3.93;;;13.10;99.90;;;;;;5031607;28;20678;-67
2021/09/02 01:32:28;;;;;;;5.83;3.97;;;13.10;99.90;;;;;;5031829;28;20666;-67
2021/09/02 01:34:56;;;;;;;9.00;3.97;;;13.00;99.90;;;;;;5028638;28;20218;-67
2021/09/02 01:37:23;;;;;;;9.90;4.00;;;13.00;99.90;;;;;;5020284;28;20223;-67
2021/09/02 01:39:51;;;;;;;8.30;4.53;;;12.90;99.90;;;;;;5021253;28;20238;-66
2021/09/02 01:42:20;;;;;;;7.00;4.17;;;12.90;99.90;;;;;;5032951;28;20219;-66
2021/09/02 01:44:46;;;;;;;8.23;3.50;;;12.80;99.90;;;;;;5039322;28;20565;-67
2021/09/02 01:47:24;;;;;;;7.70;3.97;;;12.80;99.90;;;;;;5032341;28;20213;-65
2021/09/02 01:49:51;;;;;;;8.27;3.97;;;12.80;99.90;;;;;;5032379;28;20289;-67
2021/09/02 01:52:18;;;;;;;8.00;4.07;;;12.80;99.90;;;;;;5029256;28;20682;-66
2021/09/02 01:54:46;;;;;;;8.47;4.20;;;12.80;99.90;;;;;;5031053;28;20694;-67
2021/09/02 01:57:13;;;;;;;7.27;3.97;;;12.80;99.90;;;;;;5025339;28;20210;-66
2021/09/02 01:59:41;;;;;;;6.73;3.73;;;12.70;99.90;;;;;;5019947;28;20203;-67
2021/09/02 02:02:08;;;;;;;7.77;3.90;;;12.70;99.90;;;;;;5022835;28;20223;-67
2021/09/02 02:04:35;;;;;;;5.83;3.47;;;12.60;99.90;;;;;;5019683;28;20225;-66
2021/09/02 02:07:02;;;;;;;7.07;4.07;;;12.60;99.90;;;;;;5026784;28;20537;-66
2021/09/02 02:09:29;;;;;;;9.00;4.30;;;12.70;99.90;;;;;;5027627;28;20211;-66
2021/09/02 02:11:55;;;;;;;8.70;3.73;;;12.60;99.90;;;;;;5033048;28;20214;-66
2021/09/02 02:14:22;;;;;;;6.97;4.33;;;12.60;99.90;;;;;;5025494;28;20215;-67
2021/09/02 02:16:50;;;;;;;7.43;4.10;;;12.60;99.90;;;;;;5021093;28;20215;-66
2021/09/02 02:19:17;;;;;;;6.20;3.57;;;12.60;99.90;;;;;;5020244;28;20208;-66
2021/09/02 02:21:44;;;;;;;7.70;4.17;;;12.60;99.90;;;;;;5019400;28;20222;-66
2021/09/02 02:24:11;;;;;;;7.03;3.43;;;12.60;99.90;;;;;;5021247;28;20210;-66
2021/09/02 02:26:38;;;;;;;7.87;4.33;;;12.60;99.90;;;;;;5031475;28;20210;-65
2021/09/02 02:29:05;;;;;;;7.63;3.90;;;12.50;99.90;;;;;;5017877;28;20211;-66
2021/09/02 02:31:32;;;;;;;9.27;4.07;;;12.50;99.90;;;;;;5014780;28;20222;-66
2021/09/02 02:34:00;;;;;;;5.83;4.40;;;12.40;99.90;;;;;;5027727;28;20639;-66
2021/09/02 02:36:27;;;;;;;6.60;4.30;;;12.50;99.90;;;;;;5025817;28;20229;-65
2021/09/02 02:38:54;;;;;;;7.80;4.50;;;12.40;99.90;;;;;;5020617;28;20217;-66
2021/09/02 02:41:21;;;;;;;8.50;4.57;;;12.40;99.90;;;;;;5011899;28;20242;-66
2021/09/02 02:43:47;;;;;;;7.07;4.50;;;12.40;99.90;;;;;;5029175;28;20229;-65
2021/09/02 02:46:14;;;;;;;6.97;4.27;;;12.40;99.90;;;;;;5032055;28;20206;-65
2021/09/02 02:48:41;;;;;;;6.20;3.83;;;12.30;99.90;;;;;;5027063;28;20210;-67
2021/09/02 02:51:10;;;;;;;7.73;3.87;;;12.30;99.90;;;;;;5026890;28;20210;-66
2021/09/02 02:53:36;;;;;;;7.20;4.00;;;12.30;99.90;;;;;;5035147;28;20282;-66
2021/09/02 02:56:03;;;;;;;8.47;3.77;;;12.30;99.90;;;;;;5026927;28;20215;-66
2021/09/02 02:58:30;;;;;;;6.73;4.27;;;12.20;99.90;;;;;;5015583;28;20211;-66
2021/09/02 03:00:57;;;;;;;9.07;3.83;;;12.20;99.90;;;;;;5023367;28;20215;-66
2021/09/02 03:03:23;;;;;;;6.70;3.77;;;12.20;99.90;;;;;;5027072;28;20246;-66
2021/09/02 03:05:50;;;;;;;6.40;4.10;;;12.20;99.90;;;;;;5029165;28;20209;-66
2021/09/02 03:08:18;;;;;;;7.67;3.80;;;12.10;99.90;;;;;;5038080;28;20558;-66
2021/09/02 03:10:45;;;;;;;8.23;3.40;;;12.10;99.90;;;;;;5038604;28;20218;-66
2021/09/02 03:13:12;;;;;;;8.37;3.67;;;12.10;99.90;;;;;;5038664;28;20199;-65
2021/09/02 03:15:39;;;;;;;7.50;3.90;;;12.10;99.90;;;;;;5018891;28;20199;-66
2021/09/02 03:18:05;;;;;;;8.37;3.90;;;12.10;99.90;;;;;;5028424;28;20632;-66
2021/09/02 03:20:32;;;;;;;7.33;3.83;;;12.00;99.90;;;;;;5031456;28;20221;-66
2021/09/02 03:22:59;;;;;;;7.90;4.23;;;12.00;99.90;;;;;;5028637;28;20219;-66
2021/09/02 03:25:27;;;;;;;8.47;3.93;;;12.00;99.90;;;;;;5022575;28;20207;-66
2021/09/02 03:27:54;;;;;;;8.43;4.47;;;12.00;99.90;;;;;;5014509;28;20215;-67
2021/09/02 03:30:21;;;;;;;9.87;4.30;;;12.10;99.90;;;;;;5022199;28;20218;-67
2021/09/02 03:32:50;;;;;;;6.23;4.43;;;12.00;99.90;;;;;;5015269;28;20218;-66
2021/09/02 03:35:17;;;;;;;9.13;4.53;;;12.00;99.90;;;;;;5033551;28;20206;-65
2021/09/02 03:37:44;;;;;;;9.23;4.63;;;12.00;99.90;;;;;;5028427;28;20232;-65
2021/09/02 03:40:11;;;;;;;8.83;4.10;;;12.00;99.90;;;;;;5023673;28;20231;-66
2021/09/02 03:42:39;;;;;;;8.17;3.93;;;11.90;99.90;;;;;;5017474;28;20235;-65
2021/09/02 03:45:08;;;;;;;7.67;4.10;;;12.00;99.90;;;;;;5027685;28;20215;-66
2021/09/02 03:47:35;;;;;;;9.53;3.80;;;12.00;99.90;;;;;;5034361;28;20221;-66
2021/09/02 03:50:02;;;;;;;5.67;3.63;;;12.00;99.90;;;;;;5030703;28;20662;-66
2021/09/02 03:52:29;;;;;;;8.57;4.57;;;12.00;99.90;;;;;;5032467;28;20210;-66
2021/09/02 03:54:56;;;;;;;6.70;4.40;;;12.00;99.90;;;;;;5021140;28;20230;-65
2021/09/02 03:57:22;;;;;;;6.40;3.80;;;12.00;99.90;;;;;;5029602;28;20242;-67
2021/09/02 03:59:50;;;;;;;8.90;4.13;;;12.00;99.90;;;;;;5022792;28;20298;-66
2021/09/02 04:02:17;;;;;;;8.43;4.07;;;12.00;99.90;;;;;;5028140;28;20215;-66
2021/09/02 04:04:44;;;;;;;7.63;4.10;;;12.00;99.90;;;;;;5024087;28;20207;-66
2021/09/02 04:07:11;;;;;;;8.63;4.40;;;12.00;99.90;;;;;;5028968;28;20207;-66
2021/09/02 04:09:37;;;;;;;6.93;4.67;;;11.90;99.90;;;;;;5032492;28;20215;-65
2021/09/02 04:12:05;;;;;;;8.40;4.07;;;11.90;99.90;;;;;;5025483;28;20217;-66
2021/09/02 04:14:32;;;;;;;5.67;4.03;;;11.90;99.90;;;;;;5032683;28;20210;-66
2021/09/02 04:17:01;;;;;;;7.23;4.27;;;11.90;99.90;;;;;;5033393;28;20429;-65
2021/09/02 04:19:28;;;;;;;6.43;4.00;;;11.90;99.90;;;;;;5032673;28;20209;-66
2021/09/02 04:21:54;;;;;;;7.60;4.33;;;11.90;99.90;;;;;;5033270;28;20211;-66
2021/09/02 04:24:21;;;;;;;10.90;4.20;;;11.90;99.90;;;;;;5019764;28;20214;-67
2021/09/02 04:26:48;;;;;;;7.50;4.20;;;11.90;99.90;;;;;;5032593;28;20211;-66
2021/09/02 04:29:15;;;;;;;10.13;4.57;;;11.80;99.90;;;;;;5018086;28;20211;-65
2021/09/02 04:31:42;;;;;;;7.77;4.03;;;11.80;99.90;;;;;;5021789;28;20202;-65
2021/09/02 04:34:10;;;;;;;9.20;4.50;;;11.90;99.90;;;;;;5027023;28;20582;-65
2021/09/02 04:36:37;;;;;;;8.43;4.57;;;11.90;99.90;;;;;;5017870;28;20230;-65
2021/09/02 04:39:04;;;;;;;7.23;4.07;;;12.00;99.90;;;;;;5028222;28;20765;-65
2021/09/02 04:41:30;;;;;;;9.23;4.17;;;12.00;99.90;;;;;;5019062;28;21050;-65
2021/09/02 04:43:57;;;;;;;7.03;4.10;;;12.10;99.90;;;;;;5028420;28;20222;-66
2021/09/02 04:46:24;;;;;;;7.03;4.00;;;12.10;99.90;;;;;;5033345;28;20211;-65
2021/09/02 04:48:51;;;;;;;5.67;4.00;;;12.20;99.90;;;;;;5024062;28;20214;-66
2021/09/02 04:51:19;;;;;;;7.63;4.53;;;12.20;99.90;;;;;;5027212;28;20199;-66
2021/09/02 04:53:46;;;;;;;6.63;3.73;;;12.30;99.90;;;;;;5029193;28;20200;-66
2021/09/02 04:56:13;;;;;;;10.50;3.67;;;12.40;99.90;;;;;;5018168;28;20202;-66
2021/09/02 04:58:40;;;;;;;8.80;4.17;;;12.40;99.90;;;;;;5017158;28;20211;-67
2021/09/02 05:01:07;;;;;;;7.23;3.97;;;12.50;99.90;;;;;;5019930;28;20214;-65
2021/09/02 05:03:34;;;;;;;8.27;3.93;;;12.50;99.90;;;;;;5042656;28;20226;-66
2021/09/02 05:06:00;;;;;;;6.97;4.30;;;12.60;99.90;;;;;;5023763;28;20203;-67
2021/09/02 05:08:29;;;;;;;7.23;4.03;;;12.60;99.90;;;;;;5027543;28;20218;-67
2021/09/02 05:10:57;;;;;;;8.10;4.40;;;12.60;99.90;;;;;;5013831;28;20214;-67
2021/09/02 05:13:24;;;;;;;8.33;4.87;;;12.70;99.90;;;;;;5028381;28;20216;-67
2021/09/02 05:15:51;;;;;;;7.43;4.40;;;12.70;99.90;;;;;;5022206;28;20203;-66
2021/09/02 05:18:18;;;;;;;7.93;4.20;;;12.70;99.90;;;;;;5024892;28;20679;-66
2021/09/02 05:20:44;;;;;;;6.93;3.53;;;12.70;99.90;;;;;;5023728;28;20200;-67
2021/09/02 05:23:11;;;;;;;6.23;3.83;;;12.80;99.90;;;;;;5026648;28;20233;-67
2021/09/02 05:25:40;;;;;;;8.90;4.43;;;12.80;99.90;;;;;;5029852;28;20211;-68
2021/09/02 05:28:06;;;;;;;8.43;4.13;;;12.80;99.90;;;;;;5028236;28;20232;-67
2021/09/02 05:30:33;;;;;;;6.43;4.23;;;12.80;99.90;;;;;;5031829;28;20593;-67
2021/09/02 05:33:00;;;;;;;9.93;4.27;;;12.90;99.90;;;;;;5026256;28;20210;-68
2021/09/02 05:35:27;;;;;;;8.70;4.13;;;13.00;99.90;;;;;;5028300;28;20210;-70
2021/09/02 05:37:54;;;;;;;11.57;4.63;;;13.00;99.90;;;;;;5031742;28;20302;-68
2021/09/02 05:40:20;;;;;;;7.27;4.27;;;13.10;99.90;;;;;;5030288;28;20245;-68
2021/09/02 05:42:49;;;;;;;7.70;3.63;;;13.20;99.90;;;;;;5030536;28;20207;-67
2021/09/02 05:45:15;;;;;;;8.33;4.70;;;13.30;99.90;;;;;;5032640;28;20593;-67
2021/09/02 05:47:42;;;;;;;10.10;4.63;;;13.40;99.90;;;;;;5031181;28;20207;-68
2021/09/02 05:50:09;;;;;;;11.03;4.90;;;13.50;99.90;;;;;;5032511;28;20657;-68
2021/09/02 05:52:36;;;;;;;9.87;4.77;;;13.70;99.90;;;;;;5030665;28;20331;-68
2021/09/02 05:55:03;;;;;;;6.17;3.80;;;13.80;99.90;;;;;;5032007;28;20214;-67
2021/09/02 05:57:30;;;;;;;8.47;4.40;;;14.00;99.90;;;;;;5029592;28;20206;-67
2021/09/02 05:59:58;;;;;;;10.07;4.47;;;14.10;99.90;;;;;;5020747;28;20213;-68
2021/09/02 06:02:25;;;;;;;7.00;4.27;;;14.20;99.90;;;;;;5017223;28;20209;-67
2021/09/02 06:04:52;;;;;;;6.73;4.23;;;14.40;99.90;;;;;;5031569;28;20234;-68
2021/09/02 06:07:19;;;;;;;6.30;4.17;;;14.40;99.90;;;;;;5014890;28;20210;-68
2021/09/02 06:09:46;;;;;;;9.20;4.23;;;14.60;99.90;;;;;;5021731;28;20202;-67
2021/09/02 06:12:12;;;;;;;8.90;4.87;;;14.60;99.90;;;;;;5026495;28;20226;-67
2021/09/02 06:14:40;;;;;;;6.47;4.13;;;14.70;99.90;;;;;;5015869;28;20208;-68
2021/09/02 06:17:08;;;;;;;6.53;3.57;;;14.70;99.90;;;;;;5035201;28;20206;-67
2021/09/02 06:19:35;;;;;;;8.73;4.07;;;14.80;99.90;;;;;;5031961;28;20210;-67
2021/09/02 06:22:04;;;;;;;6.13;3.60;;;14.80;99.90;;;;;;5020344;28;20214;-68
2021/09/02 06:24:31;;;;;;;8.00;3.93;;;14.80;99.90;;;;;;5021863;28;20219;-68
2021/09/02 06:26:58;;;;;;;8.50;4.57;;;14.90;99.90;;;;;;5022514;28;20215;-68
2021/09/02 06:29:25;;;;;;;6.70;3.47;;;14.90;99.90;;;;;;5027628;28;20410;-69
2021/09/02 06:31:52;;;;;;;7.23;3.83;;;14.90;99.90;;;;;;5031140;28;20202;-68
2021/09/02 06:34:21;;;;;;;5.53;3.63;;;14.90;99.90;;;;;;5029642;28;20240;-67
2021/09/02 06:36:48;;;;;;;5.67;3.87;;;14.90;99.90;;;;;;5023639;28;20226;-67
2021/09/02 06:39:15;;;;;;;11.10;3.77;;;14.90;99.90;;;;;;5034238;28;20573;-69
2021/09/02 06:41:42;;;;;;;6.33;3.70;;;14.90;99.90;;;;;;5035577;28;20325;-68
2021/09/02 06:44:10;;;;;;;6.73;4.03;;;15.00;99.90;;;;;;5036063;28;20266;-69
2021/09/02 06:46:36;;;;;;;7.27;3.80;;;15.00;99.90;;;;;;5034477;28;20218;-70
2021/09/02 06:49:05;;;;;;;7.83;4.40;;;15.10;99.90;;;;;;5031542;28;20221;-68
2021/09/02 06:51:36;;;;;;;6.83;3.50;;;15.20;99.90;;;;;;5035542;28;20666;-70
2021/09/02 06:54:03;;;;;;;7.43;3.70;;;15.20;99.90;;;;;;5029387;28;20261;-67
2021/09/02 06:56:29;;;;;;;7.53;4.07;;;15.30;99.90;;;;;;5026328;28;20289;-67
2021/09/02 06:58:56;;;;;;;8.37;4.17;;;15.30;99.90;;;;;;5026916;28;20606;-68
2021/09/02 07:01:23;;;;;;;6.73;3.70;;;15.30;99.90;;;;;;5022943;28;20208;-67
2021/09/02 07:03:50;;;;;;;5.20;3.10;;;15.30;99.90;;;;;;5020689;28;20238;-68
2021/09/02 07:06:17;;;;;;;4.40;3.10;;;15.40;99.90;;;;;;5023808;28;20628;-69
2021/09/02 07:08:45;;;;;;;5.43;3.53;;;15.40;99.90;;;;;;5030862;28;20556;-69
2021/09/02 07:11:12;;;;;;;7.53;3.23;;;15.40;99.90;;;;;;5024234;28;20221;-67
2021/09/02 07:13:39;;;;;;;5.67;3.07;;;15.50;99.90;;;;;;5025783;28;20221;-69
2021/09/02 07:16:06;;;;;;;4.93;3.03;;;15.50;99.90;;;;;;5015679;28;20946;-68
2021/09/02 07:18:33;;;;;;;6.97;3.27;;;15.50;99.90;;;;;;5026610;28;20648;-68
2021/09/02 07:21:00;;;;;;;7.57;3.40;;;15.60;99.90;;;;;;5027827;28;20208;-69
2021/09/02 07:23:26;;;;;;;7.03;3.50;;;15.60;99.90;;;;;;5025912;28;20196;-68
2021/09/02 07:25:55;;;;;;;5.53;3.00;;;15.60;99.90;;;;;;5033420;28;20198;-67
2021/09/02 07:28:21;;;;;;;4.27;3.13;;;15.70;99.90;;;;;;5019672;28;20218;-68
2021/09/02 07:30:48;;;;;;;4.77;3.30;;;15.60;99.90;;;;;;5033729;28;20214;-67
2021/09/02 07:33:15;;;;;;;6.13;3.40;;;15.60;99.90;;;;;;5031810;28;20221;-68
2021/09/02 07:35:42;;;;;;;8.67;4.67;;;15.60;99.90;;;;;;5026239;28;20761;-70
2021/09/02 07:38:09;;;;;;;5.43;3.30;;;15.60;99.90;;;;;;5033843;28;20230;-70
2021/09/02 07:40:36;;;;;;;4.27;3.00;;;15.60;99.90;;;;;;5035109;28;20234;-67
2021/09/02 07:43:04;;;;;;;4.90;3.10;;;15.50;99.90;;;;;;5034885;28;20210;-68
2021/09/02 07:45:31;;;;;;;5.77;3.53;;;15.50;99.90;;;;;;5026489;28;20222;-70
2021/09/02 07:47:58;;;;;;;4.57;3.20;;;15.50;99.90;;;;;;5034320;28;20207;-68
2021/09/02 07:50:25;;;;;;;8.27;4.20;;;15.50;99.90;;;;;;5034501;28;20639;-68
2021/09/02 07:52:52;;;;;;;4.87;3.53;;;15.50;99.90;;;;;;5034108;28;20221;-68
2021/09/02 07:55:18;;;;;;;5.57;3.70;;;15.50;99.90;;;;;;5021407;28;20210;-68
2021/09/02 07:57:48;;;;;;;6.83;3.90;;;15.50;99.90;;;;;;5025406;28;20202;-69
2021/09/02 08:00:18;;;;;;;6.50;3.87;;;15.50;99.90;;;;;;5032881;28;20737;-67
2021/09/02 08:02:45;;;;;;;6.30;3.40;;;15.60;99.90;;;;;;5024989;28;20211;-68
2021/09/02 08:05:12;;;;;;;5.33;3.13;;;15.70;99.90;;;;;;5033039;28;20240;-68
2021/09/02 08:07:47;;;;;;;4.80;3.53;;;15.90;99.90;;;;;;5033511;28;20217;-68
2021/09/02 08:10:14;;;;;;;4.00;3.60;;;16.10;99.90;;;;;;5031196;28;20245;-68
2021/09/02 08:12:40;;;;;;;4.67;3.07;;;16.40;99.90;;;;;;5033662;28;20206;-68
2021/09/02 08:15:08;;;;;;;3.90;3.00;;;16.60;99.90;;;;;;5024328;28;20213;-68
2021/09/02 08:17:36;;;;;;;6.13;3.40;;;17.00;99.90;;;;;;5033364;28;20211;-68
2021/09/02 08:20:04;;;;;;;4.40;3.37;;;17.30;99.90;;;;;;5033771;28;20218;-68
2021/09/02 08:22:31;;;;;;;4.00;3.20;;;17.50;99.90;;;;;;5033816;28;20214;-68
2021/09/02 08:24:58;;;;;;;5.17;3.73;;;17.50;99.90;;;;;;5024985;28;20219;-68
2021/09/02 08:27:25;;;;;;;5.23;3.93;;;17.60;99.90;;;;;;5028442;28;20676;-69
2021/09/02 08:29:51;;;;;;;6.00;2.90;;;17.50;99.90;;;;;;5022897;28;20202;-68
2021/09/02 08:32:18;;;;;;;4.40;3.37;;;17.40;99.90;;;;;;5033133;28;20290;-68
2021/09/02 08:34:47;;;;;;;4.63;3.17;;;17.40;99.90;;;;;;5033066;28;20206;-69
2021/09/02 08:37:13;;;;;;;4.83;3.77;;;17.20;99.90;;;;;;5032814;28;20231;-69
2021/09/02 08:39:40;;;;;;;6.60;3.63;;;17.20;99.90;;;;;;5031719;28;20203;-67
2021/09/02 08:42:08;;;;;;;6.50;4.20;;;17.20;99.90;;;;;;5032544;28;20562;-67
2021/09/02 08:44:35;;;;;;;6.23;3.47;;;17.30;99.90;;;;;;5032557;28;20231;-68
2021/09/02 08:47:02;;;;;;;5.63;3.60;;;17.50;99.90;;;;;;5032970;28;20213;-68
2021/09/02 08:49:30;;;;;;;6.53;3.73;;;17.60;99.90;;;;;;5032897;28;20213;-68
2021/09/02 08:51:59;;;;;;;5.67;3.13;;;17.60;99.90;;;;;;5030237;28;20213;-68
2021/09/02 08:54:25;;;;;;;5.97;3.50;;;17.70;99.90;;;;;;5013260;28;20200;-68
2021/09/02 08:56:52;;;;;;;5.93;3.73;;;17.60;99.90;;;;;;5027539;28;20218;-68
2021/09/02 08:59:19;;;;;;;5.87;3.90;;;17.60;99.90;;;;;;5020616;28;20221;-68
2021/09/02 09:01:49;;;;;;;5.03;3.30;;;17.60;99.90;;;;;;5031091;28;20206;-68
2021/09/02 09:04:16;;;;;;;5.83;3.67;;;17.60;99.90;;;;;;5012637;28;20285;-67
2021/09/02 09:06:43;;;;;;;4.90;3.77;;;17.70;99.90;;;;;;5017465;28;20214;-67
2021/09/02 09:09:13;;;;;;;5.23;3.87;;;17.80;99.90;;;;;;5014738;28;20218;-67
2021/09/02 09:11:47;;;;;;;4.33;3.60;;;17.90;99.90;;;;;;5021672;28;20207;-67
2021/09/02 09:14:17;;;;;;;7.07;3.57;;;17.90;99.90;;;;;;5016637;28;20210;-69
2021/09/02 09:16:47;;;;;;;8.57;3.93;;;17.90;99.90;;;;;;5018579;28;20211;-68
2021/09/02 09:19:36;;;;;;;4.57;2.77;;;18.00;99.90;;;;;;5018395;28;20213;-68
2021/09/02 09:22:04;;;;;;;4.40;3.23;;;18.10;99.90;;;;;;5016892;28;20293;-68
2021/09/02 09:24:49;;;;;;;4.35;3.08;;;18.30;99.90;;;;;;5017628;28;20593;-68
2021/09/02 09:27:18;;;;;;;5.00;2.77;;;18.50;99.90;;;;;;5031462;28;20215;-67
2021/09/02 09:29:45;;;;;;;6.97;3.47;;;18.80;99.90;;;;;;5023979;28;20207;-69
2021/09/02 09:32:14;;;;;;;3.58;2.60;;;19.10;99.90;;;;;;5037851;28;20208;-68
2021/09/02 09:34:59;;;;;;;4.45;2.75;;;19.40;99.90;;;;;;5038663;28;20222;-67
2021/09/02 09:37:25;;;;;;;5.70;3.28;;;19.70;99.90;;;;;;5019767;28;20250;-68
2021/09/02 09:39:53;;;;;;;4.20;3.15;;;19.90;99.90;;;;;;5014222;28;20234;-68
2021/09/02 09:42:20;;;;;;;4.32;2.17;;;20.00;99.90;;;;;;5029850;28;20230;-67
2021/09/02 09:44:47;;;;;;;5.15;2.95;;;20.20;99.90;;;;;;5026038;28;20559;-68
2021/09/02 09:47:16;;;;;;;2.70;2.50;;;20.40;99.90;;;;;;5031724;28;20560;-68
2021/09/02 09:49:49;;;;;;;3.88;2.85;;;20.50;99.90;;;;;;5017288;28;20214;-68
2021/09/02 09:52:24;;;;;;;5.57;2.78;;;20.90;99.90;;;;;;5030427;28;20219;-68
2021/09/02 09:54:51;;;;;;;4.50;2.92;;;21.20;99.90;;;;;;5019427;28;20203;-68
2021/09/02 09:57:19;;;;;;;3.42;2.70;;;21.40;99.90;;;;;;5021977;28;20198;-68
2021/09/02 09:59:46;;;;;;;3.78;2.70;;;22.00;99.90;;;;;;5029543;28;20210;-68
2021/09/02 10:02:13;;;;;;;5.50;2.83;;;22.50;99.90;;;;;;5018669;28;20206;-67
2021/09/02 10:04:42;;;;;;;3.70;2.85;;;22.90;98.80;;;;;;5022848;28;20227;-69
2021/09/02 10:07:12;;;;;;;3.88;2.85;;;23.10;97.10;;;;;;5019398;28;20648;-68
2021/09/02 10:09:40;;;;;;;3.47;2.80;;;23.40;96.60;;;;;;5016023;28;20631;-68
2021/09/02 10:12:07;;;;;;;3.72;2.50;;;23.60;95.30;;;;;;5017443;28;20265;-68
2021/09/02 10:14:36;;;;;;;4.57;2.70;;;23.80;93.60;;;;;;5020316;28;20633;-66
2021/09/02 10:17:04;;;;;;;3.55;2.45;;;23.90;92.80;;;;;;5026190;28;20674;-68
2021/09/02 10:19:33;;;;;;;3.80;2.60;;;23.90;91.60;;;;;;5019938;28;20555;-68
2021/09/02 10:22:02;;;;;;;3.25;2.25;;;24.00;91.40;;;;;;5019308;28;20215;-67
2021/09/02 10:24:37;;;;;;;4.97;2.80;;;24.30;91.10;;;;;;5012409;28;20249;-69
2021/09/02 10:27:37;;;;;;;4.00;2.17;;;24.30;88.80;;;;;;5012684;28;20249;-69
2021/09/02 10:30:25;;;;;;;3.47;2.38;;;24.40;88.40;;;;;;5030396;28;20207;-68
2021/09/02 10:32:53;;;;;;;4.85;2.10;;;24.60;86.30;;;;;;5028643;28;20294;-68
2021/09/02 10:35:34;;;;;;;4.00;2.45;;;24.60;85.00;;;;;;5012694;28;20249;-67
2021/09/02 10:38:02;;;;;;;3.22;2.50;;;24.60;82.90;;;;;;5022213;28;20207;-68
2021/09/02 10:40:50;;;;;;;4.03;2.45;;;24.60;83.20;;;;;;5030389;28;20642;-69
2021/09/02 10:43:48;;;;;;;3.00;2.30;;;24.90;80.30;;;;;;5031589;28;20202;-69
2021/09/02 10:46:42;;;;;;;2.63;2.15;;;24.70;78.60;;;;;;5028548;28;20215;-68
2021/09/02 10:49:31;;;;;;;5.32;2.20;;;24.50;78.80;;;;;;5018787;28;20230;-68
2021/09/02 10:52:00;;;;;;;4.30;2.22;;;24.10;77.80;;;;;;5022781;28;20233;-66
2021/09/02 10:54:30;;;;;;;5.50;2.40;;;23.70;77.70;;;;;;5022458;28;20225;-67
2021/09/02 10:57:03;;;;;;;4.43;2.60;;;23.40;78.50;;;;;;5028459;28;20215;-66
2021/09/02 10:59:45;;;;;;;3.00;2.08;;;23.10;79.50;;;;;;5029426;28;20211;-67
2021/09/02 11:02:43;;;;;;;3.60;2.53;;;23.10;80.30;;;;;;5025081;28;20215;-69
2021/09/02 11:05:12;;;;;;;2.45;2.25;;;23.10;80.00;;;;;;5020668;28;20588;-70
2021/09/02 11:07:44;;;;;;;5.32;2.22;;;22.90;79.30;;;;;;5030432;28;20207;-68
2021/09/02 11:10:17;;;;;;;4.35;2.50;;;22.80;80.50;;;;;;5030723;28;20571;-69
2021/09/02 11:12:45;;;;;;;8.88;2.53;;;23.00;81.20;;;;;;5026098;28;20222;-68
2021/09/02 11:15:21;;;;;;;3.67;2.10;;;23.30;80.60;;;;;;5027663;28;20218;-68
2021/09/02 11:17:55;;;;;;;2.72;2.10;;;23.60;79.60;;;;;;5022840;28;20292;-69
2021/09/02 11:20:24;;;;;;;2.13;1.58;;;24.00;78.20;;;;;;5027725;28;20252;-68
2021/09/02 11:22:51;;;;;;;2.65;2.03;;;24.30;74.90;;;;;;5018487;28;20316;-68
2021/09/02 11:25:19;;;;;;;3.70;1.77;;;24.60;73.10;;;;;;5029710;28;20237;-69
2021/09/02 11:27:45;;;;;;;4.30;2.00;;;24.90;71.70;;;;;;5021170;28;20206;-68
2021/09/02 11:30:17;;;;;;;4.47;2.05;;;25.00;70.40;;;;;;5034344;28;20207;-67
2021/09/02 11:32:44;;;;;;;3.25;2.10;;;25.00;70.60;;;;;;5021619;28;20217;-69
2021/09/02 11:35:14;;;;;;;5.90;1.88;;;25.10;70.10;;;;;;5030137;28;20206;-68
2021/09/02 11:37:43;;;;;;;2.60;1.85;;;25.40;69.30;;;;;;5033112;28;20230;-67
2021/09/02 11:40:20;;;;;;;2.50;2.30;;;25.40;67.50;;;;;;5021249;28;20253;-67
2021/09/02 11:42:47;;;;;;;4.68;2.17;;;25.30;67.00;;;;;;5019462;28;20203;-67
2021/09/02 11:45:17;;;;;;;2.95;2.15;;;25.50;68.10;;;;;;5032283;28;20226;-66
2021/09/02 11:47:46;;;;;;;2.40;2.10;;;25.40;67.80;;;;;;5033371;28;20206;-67
2021/09/02 11:50:15;;;;;;;5.30;2.08;;;25.40;67.60;;;;;;5029098;28;20838;-67
2021/09/02 11:52:43;;;;;;;2.78;2.10;;;25.70;68.10;;;;;;5014750;28;20215;-69
2021/09/02 11:55:15;;;;;;;3.67;2.33;;;25.70;66.00;;;;;;5014551;28;20246;-66
2021/09/02 11:57:42;;;;;;;2.65;1.77;;;25.50;65.20;;;;;;5018376;28;20206;-67
2021/09/02 12:00:16;;;;;;;5.63;2.03;;;25.40;65.10;;;;;;5021766;28;20218;-66
2021/09/02 12:02:50;;;;;;;2.45;1.85;;;25.40;65.00;;;;;;5019701;28;20210;-67
2021/09/02 12:05:22;;;;;;;2.72;2.03;;;25.20;64.20;;;;;;5027593;28;20231;-67
2021/09/02 12:07:51;;;;;;;4.38;1.70;;;25.10;64.20;;;;;;5029575;28;20210;-68
2021/09/02 12:10:19;;;;;;;4.95;1.75;;;24.90;63.50;;;;;;5032923;28;20725;-67
2021/09/02 12:12:46;;;;;;;3.25;1.90;;;24.60;63.20;;;;;;5034042;28;20731;-67
2021/09/02 12:15:25;;;;;;;3.10;1.85;;;24.40;64.00;;;;;;5024256;28;20212;-66
2021/09/02 12:18:08;;;;;;;3.53;1.75;;;24.40;65.20;;;;;;5022389;28;20202;-67
2021/09/02 12:20:38;;;;;;;3.45;2.25;;;24.50;63.90;;;;;;5020103;28;20201;-66
2021/09/02 12:23:22;;;;;;;1.67;1.50;;;24.40;63.30;;;;;;5019863;28;20698;-67
2021/09/02 12:26:00;;;;;;;4.40;1.70;;;24.30;63.20;;;;;;5016491;28;20211;-66
2021/09/02 12:28:35;;;;;;;2.22;1.70;;;24.00;63.10;;;;;;5017277;28;20207;-66
2021/09/02 12:31:16;;;;;;;3.75;1.63;;;23.80;63.30;;;;;;5027141;28;20289;-67
2021/09/02 12:34:00;;;;;;;5.90;1.85;;;23.30;64.00;;;;;;5022737;28;20210;-68
2021/09/02 12:36:28;;;;;;;5.13;2.10;;;23.00;65.50;;;;;;5011918;28;20294;-67
2021/09/02 12:38:55;;;;;;;3.08;1.90;;;22.80;66.40;;;;;;5030229;28;20273;-66
2021/09/02 12:41:24;;;;;;;3.17;1.85;;;22.60;67.00;;;;;;5023803;28;20242;-66
2021/09/02 12:44:05;;;;;;;3.50;1.58;;;22.60;68.00;;;;;;5023037;28;20209;-67
2021/09/02 12:46:50;;;;;;;2.53;1.60;;;22.60;68.10;;;;;;5021505;28;20251;-66
2021/09/02 12:49:17;;;;;;;2.42;1.58;;;22.70;68.20;;;;;;5026004;28;20218;-67
2021/09/02 12:51:57;;;;;;;3.65;2.13;;;22.70;67.00;;;;;;5032341;28;20222;-66
2021/09/02 12:54:24;;;;;;;2.97;2.15;;;22.70;66.80;;;;;;5022638;28;20217;-66